sensor_id;sensor_type;location;lat;lon;timestamp;temperature;humidity
6142;DHT22;71289;51.552;6.210;2024-02-23T00:01:47;5.00;99.90
6142;DHT22;71289;51.552;6.210;2024-02-23T00:04:13;4.90;99.90
6142;DHT22;71289;51.552;6.210;2024-02-23T00:06:39;4.90;99.90
6142;DHT22;71289;51.552;6.210;2024-02-23T00:09:05;4.90;99.90
6142;DHT22;71289;51.552;6.210;2024-02-23T00:11:30;4.80;99.90
6142;DHT22;71289;51.552;6.210;2024-02-23T00:13:58;4.80;99.90
6142;DHT22;71289;51.552;6.210;2024-02-23T00:16:24;5.10;99.90
6142;DHT22;71289;51.552;6.210;2024-02-23T00:18:50;4.70;99.90
6142;DHT22;71289;51.552;6.210;2024-02-23T00:21:15;4.90;99.90
6142;DHT22;71289;51.552;6.210;2024-02-23T00:23:41;4.70;99.90
6142;DHT22;71289;51.552;6.210;2024-02-23T00:26:07;4.70;99.90
6142;DHT22;71289;51.552;6.210;2024-02-23T00:28:32;4.70;99.90
6142;DHT22;71289;51.552;6.210;2024-02-23T00:30:58;4.50;99.90
6142;DHT22;71289;51.552;6.210;2024-02-23T00:33:23;4.50;99.90
6142;DHT22;71289;51.552;6.210;2024-02-23T00:35:49;4.40;99.90
6142;DHT22;71289;51.552;6.210;2024-02-23T00:38:14;4.50;99.90
6142;DHT22;71289;51.552;6.210;2024-02-23T00:40:40;4.40;99.90
6142;DHT22;71289;51.552;6.210;2024-02-23T00:43:06;4.50;99.90
6142;DHT22;71289;51.552;6.210;2024-02-23T00:45:31;4.50;99.90
6142;DHT22;71289;51.552;6.210;2024-02-23T00:47:57;4.50;99.90
6142;DHT22;71289;51.552;6.210;2024-02-23T00:50:23;4.50;99.90
6142;DHT22;71289;51.552;6.210;2024-02-23T00:52:52;4.90;99.90
6142;DHT22;71289;51.552;6.210;2024-02-23T00:55:19;4.60;99.90
6142;DHT22;71289;51.552;6.210;2024-02-23T00:57:44;4.60;99.90
6142;DHT22;71289;51.552;6.210;2024-02-23T01:00:11;4.60;99.90
6142;DHT22;71289;51.552;6.210;2024-02-23T01:02:38;4.70;99.90
6142;DHT22;71289;51.552;6.210;2024-02-23T01:05:04;4.70;99.90
6142;DHT22;71289;51.552;6.210;2024-02-23T01:07:30;4.70;99.90
6142;DHT22;71289;51.552;6.210;2024-02-23T01:09:55;4.70;99.90
6142;DHT22;71289;51.552;6.210;2024-02-23T01:12:21;4.70;99.90
6142;DHT22;71289;51.552;6.210;2024-02-23T01:14:47;5.10;99.90
6142;DHT22;71289;51.552;6.210;2024-02-23T01:17:14;4.80;99.90
6142;DHT22;71289;51.552;6.210;2024-02-23T01:19:41;4.80;99.90
6142;DHT22;71289;51.552;6.210;2024-02-23T01:22:06;4.80;99.90
6142;DHT22;71289;51.552;6.210;2024-02-23T01:24:32;4.80;99.90
6142;DHT22;71289;51.552;6.210;2024-02-23T01:26:58;4.80;99.90
6142;DHT22;71289;51.552;6.210;2024-02-23T01:29:25;4.80;99.90
6142;DHT22;71289;51.552;6.210;2024-02-23T01:31:51;4.80;99.90
6142;DHT22;71289;51.552;6.210;2024-02-23T01:34:17;4.80;99.90
6142;DHT22;71289;51.552;6.210;2024-02-23T01:36:43;4.80;99.90
6142;DHT22;71289;51.552;6.210;2024-02-23T01:39:09;4.80;99.90
6142;DHT22;71289;51.552;6.210;2024-02-23T01:41:35;4.80;99.90
6142;DHT22;71289;51.552;6.210;2024-02-23T01:44:01;4.80;99.90
6142;DHT22;71289;51.552;6.210;2024-02-23T01:46:26;4.90;99.90
6142;DHT22;71289;51.552;6.210;2024-02-23T01:48:53;4.90;99.90
6142;DHT22;71289;51.552;6.210;2024-02-23T01:51:19;4.90;99.90
6142;DHT22;71289;51.552;6.210;2024-02-23T01:53:45;4.90;99.90
6142;DHT22;71289;51.552;6.210;2024-02-23T01:56:12;5.20;99.90
6142;DHT22;71289;51.552;6.210;2024-02-23T01:58:39;4.90;99.90
6142;DHT22;71289;51.552;6.210;2024-02-23T02:01:05;4.90;99.90
6142;DHT22;71289;51.552;6.210;2024-02-23T02:03:32;4.90;99.90
6142;DHT22;71289;51.552;6.210;2024-02-23T02:05:58;4.90;99.90
6142;DHT22;71289;51.552;6.210;2024-02-23T02:08:25;5.00;99.90
6142;DHT22;71289;51.552;6.210;2024-02-23T02:10:51;5.00;99.90
6142;DHT22;71289;51.552;6.210;2024-02-23T02:13:17;5.20;99.90
6142;DHT22;71289;51.552;6.210;2024-02-23T02:15:43;4.90;99.90
6142;DHT22;71289;51.552;6.210;2024-02-23T02:18:09;4.90;99.90
6142;DHT22;71289;51.552;6.210;2024-02-23T02:20:36;5.00;99.90
6142;DHT22;71289;51.552;6.210;2024-02-23T02:23:02;4.90;99.90
6142;DHT22;71289;51.552;6.210;2024-02-23T02:25:28;5.00;99.90
6142;DHT22;71289;51.552;6.210;2024-02-23T02:27:54;4.90;99.90
6142;DHT22;71289;51.552;6.210;2024-02-23T02:30:20;4.90;99.90
6142;DHT22;71289;51.552;6.210;2024-02-23T02:32:45;5.00;99.90
6142;DHT22;71289;51.552;6.210;2024-02-23T02:35:11;5.00;99.90
6142;DHT22;71289;51.552;6.210;2024-02-23T02:37:40;5.00;99.90
6142;DHT22;71289;51.552;6.210;2024-02-23T02:40:06;5.00;99.90
6142;DHT22;71289;51.552;6.210;2024-02-23T02:42:33;5.00;99.90
6142;DHT22;71289;51.552;6.210;2024-02-23T02:44:58;4.90;99.90
6142;DHT22;71289;51.552;6.210;2024-02-23T02:47:24;4.90;99.90
6142;DHT22;71289;51.552;6.210;2024-02-23T02:49:49;4.90;99.90
6142;DHT22;71289;51.552;6.210;2024-02-23T02:52:16;4.90;99.90
6142;DHT22;71289;51.552;6.210;2024-02-23T02:54:42;4.90;99.90
6142;DHT22;71289;51.552;6.210;2024-02-23T02:57:07;4.80;99.90
6142;DHT22;71289;51.552;6.210;2024-02-23T02:59:36;4.80;99.90
6142;DHT22;71289;51.552;6.210;2024-02-23T03:02:02;4.80;99.90
6142;DHT22;71289;51.552;6.210;2024-02-23T03:04:27;4.80;99.90
6142;DHT22;71289;51.552;6.210;2024-02-23T03:06:53;5.30;99.90
6142;DHT22;71289;51.552;6.210;2024-02-23T03:09:18;4.90;99.90
6142;DHT22;71289;51.552;6.210;2024-02-23T03:11:44;4.80;99.90
6142;DHT22;71289;51.552;6.210;2024-02-23T03:14:09;4.80;99.90
6142;DHT22;71289;51.552;6.210;2024-02-23T03:16:35;4.80;99.90
6142;DHT22;71289;51.552;6.210;2024-02-23T03:19:03;4.80;99.90
6142;DHT22;71289;51.552;6.210;2024-02-23T03:21:28;4.80;99.90
6142;DHT22;71289;51.552;6.210;2024-02-23T03:23:54;4.80;99.90
6142;DHT22;71289;51.552;6.210;2024-02-23T03:26:20;4.80;99.90
6142;DHT22;71289;51.552;6.210;2024-02-23T03:28:45;4.90;99.90
6142;DHT22;71289;51.552;6.210;2024-02-23T03:31:11;4.80;99.90
6142;DHT22;71289;51.552;6.210;2024-02-23T03:33:37;4.80;99.90
6142;DHT22;71289;51.552;6.210;2024-02-23T03:36:03;4.90;99.90
6142;DHT22;71289;51.552;6.210;2024-02-23T03:38:29;4.80;99.90
6142;DHT22;71289;51.552;6.210;2024-02-23T03:40:55;4.80;99.90
6142;DHT22;71289;51.552;6.210;2024-02-23T03:43:21;4.80;99.90
6142;DHT22;71289;51.552;6.210;2024-02-23T03:45:46;4.80;99.90
6142;DHT22;71289;51.552;6.210;2024-02-23T03:48:12;4.80;99.90
6142;DHT22;71289;51.552;6.210;2024-02-23T03:50:38;5.10;99.90
6142;DHT22;71289;51.552;6.210;2024-02-23T03:53:03;4.90;99.90
6142;DHT22;71289;51.552;6.210;2024-02-23T03:55:29;4.90;99.90
6142;DHT22;71289;51.552;6.210;2024-02-23T03:57:54;5.00;99.90
6142;DHT22;71289;51.552;6.210;2024-02-23T04:00:20;5.00;99.90
6142;DHT22;71289;51.552;6.210;2024-02-23T04:02:48;5.10;99.90
6142;DHT22;71289;51.552;6.210;2024-02-23T04:05:14;5.10;99.90
6142;DHT22;71289;51.552;6.210;2024-02-23T04:07:40;5.10;99.90
6142;DHT22;71289;51.552;6.210;2024-02-23T04:10:06;5.10;99.90
6142;DHT22;71289;51.552;6.210;2024-02-23T04:12:31;5.00;99.90
6142;DHT22;71289;51.552;6.210;2024-02-23T04:14:57;5.10;99.90
6142;DHT22;71289;51.552;6.210;2024-02-23T04:17:23;5.00;99.90
6142;DHT22;71289;51.552;6.210;2024-02-23T04:19:48;5.10;99.90
6142;DHT22;71289;51.552;6.210;2024-02-23T04:22:14;5.40;99.90
6142;DHT22;71289;51.552;6.210;2024-02-23T04:24:40;5.00;99.90
6142;DHT22;71289;51.552;6.210;2024-02-23T04:27:07;5.10;99.90
6142;DHT22;71289;51.552;6.210;2024-02-23T04:29:33;4.90;99.90
6142;DHT22;71289;51.552;6.210;2024-02-23T04:32:00;5.10;99.90
6142;DHT22;71289;51.552;6.210;2024-02-23T04:34:26;5.10;99.90
6142;DHT22;71289;51.552;6.210;2024-02-23T04:36:52;5.10;99.90
6142;DHT22;71289;51.552;6.210;2024-02-23T04:39:18;5.40;99.90
6142;DHT22;71289;51.552;6.210;2024-02-23T04:41:43;5.10;99.90
6142;DHT22;71289;51.552;6.210;2024-02-23T04:44:09;5.20;99.90
6142;DHT22;71289;51.552;6.210;2024-02-23T04:46:34;5.10;99.90
6142;DHT22;71289;51.552;6.210;2024-02-23T04:49:01;5.10;99.90
6142;DHT22;71289;51.552;6.210;2024-02-23T04:51:27;5.10;99.90
6142;DHT22;71289;51.552;6.210;2024-02-23T04:53:52;5.10;99.90
6142;DHT22;71289;51.552;6.210;2024-02-23T04:56:18;5.10;99.90
6142;DHT22;71289;51.552;6.210;2024-02-23T04:58:44;5.20;99.90
6142;DHT22;71289;51.552;6.210;2024-02-23T05:01:10;5.20;99.90
6142;DHT22;71289;51.552;6.210;2024-02-23T05:03:36;5.10;99.90
6142;DHT22;71289;51.552;6.210;2024-02-23T05:06:03;5.20;99.90
6142;DHT22;71289;51.552;6.210;2024-02-23T05:08:28;5.20;99.90
6142;DHT22;71289;51.552;6.210;2024-02-23T05:10:56;5.50;99.90
6142;DHT22;71289;51.552;6.210;2024-02-23T05:13:21;5.30;99.90
6142;DHT22;71289;51.552;6.210;2024-02-23T05:15:47;5.30;99.90
6142;DHT22;71289;51.552;6.210;2024-02-23T05:18:12;5.30;99.90
6142;DHT22;71289;51.552;6.210;2024-02-23T05:20:38;5.30;99.90
6142;DHT22;71289;51.552;6.210;2024-02-23T05:23:04;5.40;99.90
6142;DHT22;71289;51.552;6.210;2024-02-23T05:25:29;5.40;99.90
6142;DHT22;71289;51.552;6.210;2024-02-23T05:27:55;5.40;99.90
6142;DHT22;71289;51.552;6.210;2024-02-23T05:30:21;5.40;99.90
6142;DHT22;71289;51.552;6.210;2024-02-23T05:32:47;5.40;99.90
6142;DHT22;71289;51.552;6.210;2024-02-23T05:35:13;5.40;99.90
6142;DHT22;71289;51.552;6.210;2024-02-23T05:37:39;5.40;99.90
6142;DHT22;71289;51.552;6.210;2024-02-23T05:40:05;5.40;99.90
6142;DHT22;71289;51.552;6.210;2024-02-23T05:42:38;5.40;99.90
6142;DHT22;71289;51.552;6.210;2024-02-23T05:45:04;5.40;99.90
6142;DHT22;71289;51.552;6.210;2024-02-23T05:47:30;5.40;99.90
6142;DHT22;71289;51.552;6.210;2024-02-23T05:49:56;5.30;99.90
6142;DHT22;71289;51.552;6.210;2024-02-23T05:52:21;5.30;99.90
6142;DHT22;71289;51.552;6.210;2024-02-23T05:54:47;5.40;99.90
6142;DHT22;71289;51.552;6.210;2024-02-23T05:57:13;5.50;99.90
6142;DHT22;71289;51.552;6.210;2024-02-23T05:59:38;5.50;99.90
6142;DHT22;71289;51.552;6.210;2024-02-23T06:02:04;5.70;99.90
6142;DHT22;71289;51.552;6.210;2024-02-23T06:04:30;5.60;99.90
6142;DHT22;71289;51.552;6.210;2024-02-23T06:06:55;5.70;99.90
6142;DHT22;71289;51.552;6.210;2024-02-23T06:09:21;5.60;99.90
6142;DHT22;71289;51.552;6.210;2024-02-23T06:11:47;5.70;99.90
6142;DHT22;71289;51.552;6.210;2024-02-23T06:14:12;5.80;99.90
6142;DHT22;71289;51.552;6.210;2024-02-23T06:16:38;5.80;99.90
6142;DHT22;71289;51.552;6.210;2024-02-23T06:19:04;5.70;99.90
6142;DHT22;71289;51.552;6.210;2024-02-23T06:21:29;5.70;99.90
6142;DHT22;71289;51.552;6.210;2024-02-23T06:23:55;5.80;99.90
6142;DHT22;71289;51.552;6.210;2024-02-23T06:26:21;5.80;99.90
6142;DHT22;71289;51.552;6.210;2024-02-23T06:28:47;5.80;99.90
6142;DHT22;71289;51.552;6.210;2024-02-23T06:31:14;5.70;99.90
6142;DHT22;71289;51.552;6.210;2024-02-23T06:33:39;6.00;99.90
6142;DHT22;71289;51.552;6.210;2024-02-23T06:36:06;5.70;99.90
6142;DHT22;71289;51.552;6.210;2024-02-23T06:38:33;5.70;99.90
6142;DHT22;71289;51.552;6.210;2024-02-23T06:40:58;5.80;99.90
6142;DHT22;71289;51.552;6.210;2024-02-23T06:43:24;5.70;99.90
6142;DHT22;71289;51.552;6.210;2024-02-23T06:45:50;6.00;99.90
6142;DHT22;71289;51.552;6.210;2024-02-23T06:48:16;5.70;99.90
6142;DHT22;71289;51.552;6.210;2024-02-23T06:50:42;5.80;99.90
6142;DHT22;71289;51.552;6.210;2024-02-23T06:53:07;5.80;99.90
6142;DHT22;71289;51.552;6.210;2024-02-23T06:55:34;5.80;99.90
6142;DHT22;71289;51.552;6.210;2024-02-23T06:58:00;5.80;99.90
6142;DHT22;71289;51.552;6.210;2024-02-23T07:00:25;5.80;99.90
6142;DHT22;71289;51.552;6.210;2024-02-23T07:02:51;5.90;99.90
6142;DHT22;71289;51.552;6.210;2024-02-23T07:05:16;5.90;99.90
6142;DHT22;71289;51.552;6.210;2024-02-23T07:07:42;5.90;99.90
6142;DHT22;71289;51.552;6.210;2024-02-23T07:10:08;6.00;99.90
6142;DHT22;71289;51.552;6.210;2024-02-23T07:12:34;6.00;99.90
6142;DHT22;71289;51.552;6.210;2024-02-23T07:15:00;6.40;99.90
6142;DHT22;71289;51.552;6.210;2024-02-23T07:17:26;6.10;99.90
6142;DHT22;71289;51.552;6.210;2024-02-23T07:19:51;6.10;99.90
6142;DHT22;71289;51.552;6.210;2024-02-23T07:22:18;6.10;99.90
6142;DHT22;71289;51.552;6.210;2024-02-23T07:24:44;6.20;99.90
6142;DHT22;71289;51.552;6.210;2024-02-23T07:27:10;6.20;99.90
6142;DHT22;71289;51.552;6.210;2024-02-23T07:29:35;6.20;99.90
6142;DHT22;71289;51.552;6.210;2024-02-23T07:32:01;6.20;99.90
6142;DHT22;71289;51.552;6.210;2024-02-23T07:34:27;6.20;99.90
6142;DHT22;71289;51.552;6.210;2024-02-23T07:36:53;6.20;99.90
6142;DHT22;71289;51.552;6.210;2024-02-23T07:39:19;6.30;99.90
6142;DHT22;71289;51.552;6.210;2024-02-23T07:41:45;6.30;99.90
6142;DHT22;71289;51.552;6.210;2024-02-23T07:44:11;6.30;99.90
6142;DHT22;71289;51.552;6.210;2024-02-23T07:46:37;6.10;99.90
6142;DHT22;71289;51.552;6.210;2024-02-23T07:49:04;6.30;99.90
6142;DHT22;71289;51.552;6.210;2024-02-23T07:51:30;6.30;99.90
6142;DHT22;71289;51.552;6.210;2024-02-23T07:53:56;6.40;99.90
6142;DHT22;71289;51.552;6.210;2024-02-23T07:56:21;6.60;99.90
6142;DHT22;71289;51.552;6.210;2024-02-23T07:58:47;6.60;99.90
6142;DHT22;71289;51.552;6.210;2024-02-23T08:01:15;6.40;99.90
6142;DHT22;71289;51.552;6.210;2024-02-23T08:03:41;6.40;99.90
6142;DHT22;71289;51.552;6.210;2024-02-23T08:06:07;6.50;99.90
6142;DHT22;71289;51.552;6.210;2024-02-23T08:08:32;6.50;99.90
6142;DHT22;71289;51.552;6.210;2024-02-23T08:11:03;6.50;99.90
6142;DHT22;71289;51.552;6.210;2024-02-23T08:13:29;6.60;99.90
6142;DHT22;71289;51.552;6.210;2024-02-23T08:15:55;7.00;99.90
6142;DHT22;71289;51.552;6.210;2024-02-23T08:18:21;6.80;99.90
6142;DHT22;71289;51.552;6.210;2024-02-23T08:20:48;6.80;99.90
6142;DHT22;71289;51.552;6.210;2024-02-23T08:23:13;6.90;99.90
6142;DHT22;71289;51.552;6.210;2024-02-23T08:25:39;6.90;99.90
6142;DHT22;71289;51.552;6.210;2024-02-23T08:28:05;6.90;99.90
6142;DHT22;71289;51.552;6.210;2024-02-23T08:30:31;6.80;99.90
6142;DHT22;71289;51.552;6.210;2024-02-23T08:32:57;6.90;99.90
6142;DHT22;71289;51.552;6.210;2024-02-23T08:35:22;6.90;99.90
6142;DHT22;71289;51.552;6.210;2024-02-23T08:37:48;6.90;99.90
6142;DHT22;71289;51.552;6.210;2024-02-23T08:40:13;6.90;99.90
6142;DHT22;71289;51.552;6.210;2024-02-23T08:42:39;7.00;99.90
6142;DHT22;71289;51.552;6.210;2024-02-23T08:45:05;7.10;99.90
6142;DHT22;71289;51.552;6.210;2024-02-23T08:47:31;6.90;99.90
6142;DHT22;71289;51.552;6.210;2024-02-23T08:50:01;7.20;99.90
6142;DHT22;71289;51.552;6.210;2024-02-23T08:52:26;7.00;99.90
6142;DHT22;71289;51.552;6.210;2024-02-23T08:54:52;7.00;99.90
6142;DHT22;71289;51.552;6.210;2024-02-23T08:57:17;7.20;99.90
6142;DHT22;71289;51.552;6.210;2024-02-23T08:59:49;7.20;99.90
6142;DHT22;71289;51.552;6.210;2024-02-23T09:02:14;7.20;99.90
6142;DHT22;71289;51.552;6.210;2024-02-23T09:04:40;7.20;99.90
6142;DHT22;71289;51.552;6.210;2024-02-23T09:07:06;7.20;99.90
6142;DHT22;71289;51.552;6.210;2024-02-23T09:09:31;7.20;99.90
6142;DHT22;71289;51.552;6.210;2024-02-23T09:11:57;7.30;99.90
6142;DHT22;71289;51.552;6.210;2024-02-23T09:14:22;7.50;99.90
6142;DHT22;71289;51.552;6.210;2024-02-23T09:16:50;7.60;99.90
6142;DHT22;71289;51.552;6.210;2024-02-23T09:19:19;7.60;99.90
6142;DHT22;71289;51.552;6.210;2024-02-23T09:21:46;7.50;99.90
6142;DHT22;71289;51.552;6.210;2024-02-23T09:24:12;7.50;99.90
6142;DHT22;71289;51.552;6.210;2024-02-23T09:26:38;7.50;99.90
6142;DHT22;71289;51.552;6.210;2024-02-23T09:29:05;7.50;99.90
6142;DHT22;71289;51.552;6.210;2024-02-23T09:31:30;7.50;99.90
6142;DHT22;71289;51.552;6.210;2024-02-23T09:33:57;7.50;99.90
6142;DHT22;71289;51.552;6.210;2024-02-23T09:36:23;7.50;99.90
6142;DHT22;71289;51.552;6.210;2024-02-23T09:38:48;7.50;99.90
6142;DHT22;71289;51.552;6.210;2024-02-23T09:41:21;7.50;99.90
6142;DHT22;71289;51.552;6.210;2024-02-23T09:43:48;7.50;99.90
6142;DHT22;71289;51.552;6.210;2024-02-23T09:46:15;7.50;99.90
6142;DHT22;71289;51.552;6.210;2024-02-23T09:48:43;7.50;99.90
6142;DHT22;71289;51.552;6.210;2024-02-23T09:51:10;7.50;99.90
6142;DHT22;71289;51.552;6.210;2024-02-23T09:53:37;7.50;99.90
6142;DHT22;71289;51.552;6.210;2024-02-23T09:56:04;7.50;99.90
6142;DHT22;71289;51.552;6.210;2024-02-23T09:58:31;7.60;99.90
6142;DHT22;71289;51.552;6.210;2024-02-23T10:00:58;7.60;99.90
6142;DHT22;71289;51.552;6.210;2024-02-23T10:03:26;7.50;99.90
6142;DHT22;71289;51.552;6.210;2024-02-23T10:05:54;7.40;99.90
6142;DHT22;71289;51.552;6.210;2024-02-23T10:08:20;7.60;99.90
6142;DHT22;71289;51.552;6.210;2024-02-23T10:10:48;7.60;99.90
6142;DHT22;71289;51.552;6.210;2024-02-23T10:13:20;7.50;99.90
6142;DHT22;71289;51.552;6.210;2024-02-23T10:15:47;7.60;99.90
6142;DHT22;71289;51.552;6.210;2024-02-23T10:18:13;7.80;99.90
6142;DHT22;71289;51.552;6.210;2024-02-23T10:20:39;7.60;99.90
6142;DHT22;71289;51.552;6.210;2024-02-23T10:23:05;7.60;99.90
6142;DHT22;71289;51.552;6.210;2024-02-23T10:25:33;7.60;99.90
6142;DHT22;71289;51.552;6.210;2024-02-23T10:28:01;7.90;99.90
6142;DHT22;71289;51.552;6.210;2024-02-23T10:30:27;7.60;99.90
6142;DHT22;71289;51.552;6.210;2024-02-23T10:32:56;7.70;99.90
6142;DHT22;71289;51.552;6.210;2024-02-23T10:35:22;7.70;99.90
6142;DHT22;71289;51.552;6.210;2024-02-23T10:37:49;7.70;99.90
6142;DHT22;71289;51.552;6.210;2024-02-23T10:40:17;7.90;99.90
6142;DHT22;71289;51.552;6.210;2024-02-23T10:42:47;7.70;99.90
6142;DHT22;71289;51.552;6.210;2024-02-23T10:45:19;7.70;99.90
6142;DHT22;71289;51.552;6.210;2024-02-23T10:47:46;7.70;99.90
6142;DHT22;71289;51.552;6.210;2024-02-23T10:50:12;7.70;99.90
6142;DHT22;71289;51.552;6.210;2024-02-23T10:52:43;7.70;99.90
6142;DHT22;71289;51.552;6.210;2024-02-23T10:55:09;7.70;99.90
6142;DHT22;71289;51.552;6.210;2024-02-23T10:57:35;7.80;99.90
6142;DHT22;71289;51.552;6.210;2024-02-23T11:00:03;7.80;99.90
6142;DHT22;71289;51.552;6.210;2024-02-23T11:02:38;7.80;99.90
6142;DHT22;71289;51.552;6.210;2024-02-23T11:05:05;7.90;99.90
6142;DHT22;71289;51.552;6.210;2024-02-23T11:07:30;7.80;99.90
6142;DHT22;71289;51.552;6.210;2024-02-23T11:09:59;7.90;99.90
6142;DHT22;71289;51.552;6.210;2024-02-23T11:12:26;7.90;99.90
6142;DHT22;71289;51.552;6.210;2024-02-23T11:14:56;7.90;99.90
6142;DHT22;71289;51.552;6.210;2024-02-23T11:17:22;7.90;99.90
6142;DHT22;71289;51.552;6.210;2024-02-23T11:19:51;7.90;99.90
6142;DHT22;71289;51.552;6.210;2024-02-23T11:22:27;8.10;99.90
6142;DHT22;71289;51.552;6.210;2024-02-23T11:24:59;7.90;99.90
6142;DHT22;71289;51.552;6.210;2024-02-23T11:27:29;8.40;99.90
6142;DHT22;71289;51.552;6.210;2024-02-23T11:30:06;8.00;99.90
6142;DHT22;71289;51.552;6.210;2024-02-23T11:32:39;8.00;99.90
6142;DHT22;71289;51.552;6.210;2024-02-23T11:35:07;8.00;99.90
6142;DHT22;71289;51.552;6.210;2024-02-23T11:37:43;8.00;99.90
6142;DHT22;71289;51.552;6.210;2024-02-23T11:40:09;8.10;99.90
6142;DHT22;71289;51.552;6.210;2024-02-23T11:42:36;8.10;99.90
6142;DHT22;71289;51.552;6.210;2024-02-23T11:45:03;8.10;99.90
6142;DHT22;71289;51.552;6.210;2024-02-23T11:47:29;8.10;99.90
6142;DHT22;71289;51.552;6.210;2024-02-23T11:49:55;8.20;99.90
6142;DHT22;71289;51.552;6.210;2024-02-23T11:52:21;8.20;99.90
6142;DHT22;71289;51.552;6.210;2024-02-23T11:54:46;8.50;99.90
6142;DHT22;71289;51.552;6.210;2024-02-23T11:57:12;8.20;99.90
6142;DHT22;71289;51.552;6.210;2024-02-23T11:59:40;8.20;99.90
6142;DHT22;71289;51.552;6.210;2024-02-23T12:02:06;8.20;99.90
6142;DHT22;71289;51.552;6.210;2024-02-23T12:04:33;8.40;99.90
6142;DHT22;71289;51.552;6.210;2024-02-23T12:06:59;8.30;99.90
6142;DHT22;71289;51.552;6.210;2024-02-23T12:09:24;8.30;99.90
6142;DHT22;71289;51.552;6.210;2024-02-23T12:11:50;8.30;99.90
6142;DHT22;71289;51.552;6.210;2024-02-23T12:14:16;8.30;99.90
6142;DHT22;71289;51.552;6.210;2024-02-23T12:16:43;8.30;99.90
6142;DHT22;71289;51.552;6.210;2024-02-23T12:19:09;8.30;99.90
6142;DHT22;71289;51.552;6.210;2024-02-23T12:21:35;8.30;99.90
6142;DHT22;71289;51.552;6.210;2024-02-23T12:24:06;8.30;99.90
6142;DHT22;71289;51.552;6.210;2024-02-23T12:26:33;8.30;99.90
6142;DHT22;71289;51.552;6.210;2024-02-23T12:29:02;8.50;99.90
6142;DHT22;71289;51.552;6.210;2024-02-23T12:31:29;8.50;99.90
6142;DHT22;71289;51.552;6.210;2024-02-23T12:33:57;8.70;99.90
6142;DHT22;71289;51.552;6.210;2024-02-23T12:36:23;8.40;99.90
6142;DHT22;71289;51.552;6.210;2024-02-23T12:38:48;8.40;99.90
6142;DHT22;71289;51.552;6.210;2024-02-23T12:41:14;8.40;99.90
6142;DHT22;71289;51.552;6.210;2024-02-23T12:43:40;8.70;99.90
6142;DHT22;71289;51.552;6.210;2024-02-23T12:46:05;8.40;99.90
6142;DHT22;71289;51.552;6.210;2024-02-23T12:48:33;8.40;99.90
6142;DHT22;71289;51.552;6.210;2024-02-23T12:50:59;8.40;99.90
6142;DHT22;71289;51.552;6.210;2024-02-23T12:53:32;8.40;99.90
6142;DHT22;71289;51.552;6.210;2024-02-23T12:56:05;8.40;99.90
6142;DHT22;71289;51.552;6.210;2024-02-23T12:58:33;8.30;99.90
6142;DHT22;71289;51.552;6.210;2024-02-23T13:00:59;8.40;99.90
6142;DHT22;71289;51.552;6.210;2024-02-23T13:03:25;8.20;99.90
6142;DHT22;71289;51.552;6.210;2024-02-23T13:05:55;8.20;99.90
6142;DHT22;71289;51.552;6.210;2024-02-23T13:08:22;8.10;99.90
6142;DHT22;71289;51.552;6.210;2024-02-23T13:10:48;8.10;99.90
6142;DHT22;71289;51.552;6.210;2024-02-23T13:13:14;8.10;99.90
6142;DHT22;71289;51.552;6.210;2024-02-23T13:15:41;8.10;99.90
6142;DHT22;71289;51.552;6.210;2024-02-23T13:18:06;8.30;99.90
6142;DHT22;71289;51.552;6.210;2024-02-23T13:20:32;8.10;99.90
6142;DHT22;71289;51.552;6.210;2024-02-23T13:22:58;8.10;99.90
6142;DHT22;71289;51.552;6.210;2024-02-23T13:25:23;8.00;99.90
6142;DHT22;71289;51.552;6.210;2024-02-23T13:27:49;7.90;99.90
6142;DHT22;71289;51.552;6.210;2024-02-23T13:30:15;8.20;99.90
6142;DHT22;71289;51.552;6.210;2024-02-23T13:32:41;7.80;99.90
6142;DHT22;71289;51.552;6.210;2024-02-23T13:35:06;7.70;99.90
6142;DHT22;71289;51.552;6.210;2024-02-23T13:37:34;7.70;99.90
6142;DHT22;71289;51.552;6.210;2024-02-23T13:40:00;7.70;99.90
6142;DHT22;71289;51.552;6.210;2024-02-23T13:42:25;7.70;99.90
6142;DHT22;71289;51.552;6.210;2024-02-23T13:44:51;7.80;99.90
6142;DHT22;71289;51.552;6.210;2024-02-23T13:47:16;7.60;99.90
6142;DHT22;71289;51.552;6.210;2024-02-23T13:49:42;7.70;99.90
6142;DHT22;71289;51.552;6.210;2024-02-23T13:52:08;7.70;99.90
6142;DHT22;71289;51.552;6.210;2024-02-23T13:54:34;7.70;99.90
6142;DHT22;71289;51.552;6.210;2024-02-23T13:56:59;7.80;99.90
6142;DHT22;71289;51.552;6.210;2024-02-23T13:59:25;7.80;99.90
6142;DHT22;71289;51.552;6.210;2024-02-23T14:01:50;7.80;99.90
6142;DHT22;71289;51.552;6.210;2024-02-23T14:04:17;7.90;99.90
6142;DHT22;71289;51.552;6.210;2024-02-23T14:06:43;7.90;99.90
6142;DHT22;71289;51.552;6.210;2024-02-23T14:09:09;8.00;99.90
6142;DHT22;71289;51.552;6.210;2024-02-23T14:11:35;8.00;99.90
6142;DHT22;71289;51.552;6.210;2024-02-23T14:14:01;8.00;99.90
6142;DHT22;71289;51.552;6.210;2024-02-23T14:16:28;8.10;99.90
6142;DHT22;71289;51.552;6.210;2024-02-23T14:18:54;8.40;99.90
6142;DHT22;71289;51.552;6.210;2024-02-23T14:21:19;8.20;99.90
6142;DHT22;71289;51.552;6.210;2024-02-23T14:23:46;8.10;99.90
6142;DHT22;71289;51.552;6.210;2024-02-23T14:26:12;8.20;99.90
6142;DHT22;71289;51.552;6.210;2024-02-23T14:28:38;8.10;99.90
6142;DHT22;71289;51.552;6.210;2024-02-23T14:31:04;8.30;99.90
6142;DHT22;71289;51.552;6.210;2024-02-23T14:33:30;8.30;99.90
6142;DHT22;71289;51.552;6.210;2024-02-23T14:35:55;8.30;99.90
6142;DHT22;71289;51.552;6.210;2024-02-23T14:38:21;8.50;99.90
6142;DHT22;71289;51.552;6.210;2024-02-23T14:40:47;8.60;99.90
6142;DHT22;71289;51.552;6.210;2024-02-23T14:43:13;8.40;99.90
6142;DHT22;71289;51.552;6.210;2024-02-23T14:45:38;8.30;99.90
6142;DHT22;71289;51.552;6.210;2024-02-23T14:48:04;8.40;99.90
6142;DHT22;71289;51.552;6.210;2024-02-23T14:50:30;8.40;99.90
6142;DHT22;71289;51.552;6.210;2024-02-23T14:52:55;8.50;99.90
6142;DHT22;71289;51.552;6.210;2024-02-23T14:55:21;8.50;99.90
6142;DHT22;71289;51.552;6.210;2024-02-23T14:57:47;8.70;99.90
6142;DHT22;71289;51.552;6.210;2024-02-23T15:00:13;8.50;99.90
6142;DHT22;71289;51.552;6.210;2024-02-23T15:02:39;8.40;99.90
6142;DHT22;71289;51.552;6.210;2024-02-23T15:05:07;8.80;99.90
6142;DHT22;71289;51.552;6.210;2024-02-23T15:07:33;8.40;99.90
6142;DHT22;71289;51.552;6.210;2024-02-23T15:10:00;8.40;99.90
6142;DHT22;71289;51.552;6.210;2024-02-23T15:12:31;8.40;99.90
6142;DHT22;71289;51.552;6.210;2024-02-23T15:14:57;8.40;99.90
6142;DHT22;71289;51.552;6.210;2024-02-23T15:17:22;8.50;99.90
6142;DHT22;71289;51.552;6.210;2024-02-23T15:19:48;8.50;99.90
6142;DHT22;71289;51.552;6.210;2024-02-23T15:22:14;8.50;99.90
6142;DHT22;71289;51.552;6.210;2024-02-23T15:24:41;8.50;99.90
6142;DHT22;71289;51.552;6.210;2024-02-23T15:27:10;8.50;99.90
6142;DHT22;71289;51.552;6.210;2024-02-23T15:29:35;8.50;99.90
6142;DHT22;71289;51.552;6.210;2024-02-23T15:32:01;8.40;99.90
6142;DHT22;71289;51.552;6.210;2024-02-23T15:34:27;8.30;99.90
6142;DHT22;71289;51.552;6.210;2024-02-23T15:36:53;8.20;99.90
6142;DHT22;71289;51.552;6.210;2024-02-23T15:39:19;8.10;99.90
6142;DHT22;71289;51.552;6.210;2024-02-23T15:41:45;8.00;99.90
6142;DHT22;71289;51.552;6.210;2024-02-23T15:44:11;8.00;99.90
6142;DHT22;71289;51.552;6.210;2024-02-23T15:46:36;8.10;99.90
6142;DHT22;71289;51.552;6.210;2024-02-23T15:49:02;8.10;99.90
6142;DHT22;71289;51.552;6.210;2024-02-23T15:51:27;8.20;99.90
6142;DHT22;71289;51.552;6.210;2024-02-23T15:53:59;8.40;99.90
6142;DHT22;71289;51.552;6.210;2024-02-23T15:56:24;8.30;99.90